sensor_id;sensor_type;location;lat;lon;timestamp;P1;durP1;ratioP1;P2;durP2;ratioP2
20399;SDS011;10359;53.596;22.520;2022-07-29T00:02:13;3.63;;;3.00;;
20399;SDS011;10359;53.596;22.520;2022-07-29T00:04:44;5.40;;;2.93;;
20399;SDS011;10359;53.596;22.520;2022-07-29T00:07:13;4.60;;;3.00;;
20399;SDS011;10359;53.596;22.520;2022-07-29T00:09:42;3.53;;;3.23;;
20399;SDS011;10359;53.596;22.520;2022-07-29T00:12:17;4.30;;;3.40;;
20399;SDS011;10359;53.596;22.520;2022-07-29T00:14:53;6.00;;;3.47;;
20399;SDS011;10359;53.596;22.520;2022-07-29T00:17:24;4.37;;;3.47;;
20399;SDS011;10359;53.596;22.520;2022-07-29T00:19:53;4.87;;;3.60;;
20399;SDS011;10359;53.596;22.520;2022-07-29T00:22:22;4.70;;;3.30;;
20399;SDS011;10359;53.596;22.520;2022-07-29T00:24:51;4.60;;;3.10;;
20399;SDS011;10359;53.596;22.520;2022-07-29T00:27:20;8.47;;;3.27;;
20399;SDS011;10359;53.596;22.520;2022-07-29T00:29:49;5.70;;;3.53;;
20399;SDS011;10359;53.596;22.520;2022-07-29T00:32:18;4.37;;;3.33;;
20399;SDS011;10359;53.596;22.520;2022-07-29T00:34:49;5.63;;;3.70;;
20399;SDS011;10359;53.596;22.520;2022-07-29T00:37:35;4.10;;;3.30;;
20399;SDS011;10359;53.596;22.520;2022-07-29T00:40:04;5.63;;;4.43;;
20399;SDS011;10359;53.596;22.520;2022-07-29T00:42:41;6.50;;;5.40;;
20399;SDS011;10359;53.596;22.520;2022-07-29T00:45:10;8.40;;;6.67;;
20399;SDS011;10359;53.596;22.520;2022-07-29T00:47:40;9.13;;;6.97;;
20399;SDS011;10359;53.596;22.520;2022-07-29T00:50:12;10.17;;;7.47;;
20399;SDS011;10359;53.596;22.520;2022-07-29T00:52:42;9.47;;;7.27;;
20399;SDS011;10359;53.596;22.520;2022-07-29T00:55:12;8.17;;;7.33;;
20399;SDS011;10359;53.596;22.520;2022-07-29T00:57:42;10.93;;;8.17;;
20399;SDS011;10359;53.596;22.520;2022-07-29T01:00:13;7.97;;;6.77;;
20399;SDS011;10359;53.596;22.520;2022-07-29T01:02:45;9.73;;;7.93;;
20399;SDS011;10359;53.596;22.520;2022-07-29T01:05:19;10.97;;;8.30;;
20399;SDS011;10359;53.596;22.520;2022-07-29T01:08:10;10.23;;;7.90;;
20399;SDS011;10359;53.596;22.520;2022-07-29T01:10:48;9.47;;;7.60;;
20399;SDS011;10359;53.596;22.520;2022-07-29T01:13:20;8.70;;;7.03;;
20399;SDS011;10359;53.596;22.520;2022-07-29T01:15:51;7.97;;;7.00;;
20399;SDS011;10359;53.596;22.520;2022-07-29T01:18:28;7.50;;;6.77;;
20399;SDS011;10359;53.596;22.520;2022-07-29T01:24:09;7.77;;;5.90;;
20399;SDS011;10359;53.596;22.520;2022-07-29T01:26:50;10.07;;;7.57;;
20399;SDS011;10359;53.596;22.520;2022-07-29T01:29:27;9.83;;;7.73;;
20399;SDS011;10359;53.596;22.520;2022-07-29T01:32:05;10.27;;;7.47;;
20399;SDS011;10359;53.596;22.520;2022-07-29T01:34:54;8.90;;;6.50;;
20399;SDS011;10359;53.596;22.520;2022-07-29T01:37:28;6.40;;;5.23;;
20399;SDS011;10359;53.596;22.520;2022-07-29T01:40:02;8.73;;;5.67;;
20399;SDS011;10359;53.596;22.520;2022-07-29T01:42:34;7.77;;;6.33;;
20399;SDS011;10359;53.596;22.520;2022-07-29T01:45:08;8.87;;;6.00;;
20399;SDS011;10359;53.596;22.520;2022-07-29T01:47:44;6.53;;;5.13;;
20399;SDS011;10359;53.596;22.520;2022-07-29T01:50:18;7.27;;;4.93;;
20399;SDS011;10359;53.596;22.520;2022-07-29T01:52:56;6.67;;;4.57;;
20399;SDS011;10359;53.596;22.520;2022-07-29T01:55:27;5.50;;;4.43;;
20399;SDS011;10359;53.596;22.520;2022-07-29T01:57:59;5.10;;;4.00;;
20399;SDS011;10359;53.596;22.520;2022-07-29T02:00:32;4.60;;;4.00;;
20399;SDS011;10359;53.596;22.520;2022-07-29T02:03:07;6.00;;;4.40;;
20399;SDS011;10359;53.596;22.520;2022-07-29T02:05:39;6.10;;;4.37;;
20399;SDS011;10359;53.596;22.520;2022-07-29T02:08:11;7.07;;;3.90;;
20399;SDS011;10359;53.596;22.520;2022-07-29T02:13:23;6.20;;;3.40;;
20399;SDS011;10359;53.596;22.520;2022-07-29T02:16:16;5.33;;;3.97;;
20399;SDS011;10359;53.596;22.520;2022-07-29T02:18:49;4.47;;;2.90;;
20399;SDS011;10359;53.596;22.520;2022-07-29T02:21:23;5.10;;;2.87;;
20399;SDS011;10359;53.596;22.520;2022-07-29T02:23:54;4.93;;;2.93;;
20399;SDS011;10359;53.596;22.520;2022-07-29T02:26:25;4.17;;;2.83;;
20399;SDS011;10359;53.596;22.520;2022-07-29T02:28:57;5.33;;;2.87;;
20399;SDS011;10359;53.596;22.520;2022-07-29T02:31:30;3.40;;;2.40;;
20399;SDS011;10359;53.596;22.520;2022-07-29T02:34:05;4.03;;;2.93;;
20399;SDS011;10359;53.596;22.520;2022-07-29T02:36:36;3.97;;;2.63;;
20399;SDS011;10359;53.596;22.520;2022-07-29T02:39:07;3.97;;;2.90;;
20399;SDS011;10359;53.596;22.520;2022-07-29T02:41:40;4.00;;;2.50;;
20399;SDS011;10359;53.596;22.520;2022-07-29T02:44:12;6.83;;;3.17;;
20399;SDS011;10359;53.596;22.520;2022-07-29T02:46:46;3.37;;;2.20;;
20399;SDS011;10359;53.596;22.520;2022-07-29T02:49:18;3.67;;;2.37;;
20399;SDS011;10359;53.596;22.520;2022-07-29T02:52:00;3.80;;;2.40;;
20399;SDS011;10359;53.596;22.520;2022-07-29T02:54:33;4.67;;;2.70;;
20399;SDS011;10359;53.596;22.520;2022-07-29T02:57:11;4.17;;;2.47;;
20399;SDS011;10359;53.596;22.520;2022-07-29T02:59:51;4.10;;;2.50;;
20399;SDS011;10359;53.596;22.520;2022-07-29T03:02:26;3.97;;;2.37;;
20399;SDS011;10359;53.596;22.520;2022-07-29T03:04:57;3.63;;;2.47;;
20399;SDS011;10359;53.596;22.520;2022-07-29T03:07:29;3.87;;;2.60;;
20399;SDS011;10359;53.596;22.520;2022-07-29T03:10:00;3.07;;;2.23;;
20399;SDS011;10359;53.596;22.520;2022-07-29T03:12:36;4.43;;;2.50;;
20399;SDS011;10359;53.596;22.520;2022-07-29T03:15:06;4.00;;;2.50;;
20399;SDS011;10359;53.596;22.520;2022-07-29T03:17:38;3.10;;;2.37;;
20399;SDS011;10359;53.596;22.520;2022-07-29T03:20:09;3.40;;;2.70;;
20399;SDS011;10359;53.596;22.520;2022-07-29T03:22:41;3.60;;;2.30;;
20399;SDS011;10359;53.596;22.520;2022-07-29T03:25:14;3.70;;;2.13;;
20399;SDS011;10359;53.596;22.520;2022-07-29T03:27:44;3.57;;;2.53;;
20399;SDS011;10359;53.596;22.520;2022-07-29T03:30:14;2.30;;;2.10;;
20399;SDS011;10359;53.596;22.520;2022-07-29T03:32:49;3.57;;;2.27;;
20399;SDS011;10359;53.596;22.520;2022-07-29T03:35:22;8.57;;;2.33;;
20399;SDS011;10359;53.596;22.520;2022-07-29T03:37:51;2.47;;;2.27;;
20399;SDS011;10359;53.596;22.520;2022-07-29T03:40:22;3.50;;;2.30;;
20399;SDS011;10359;53.596;22.520;2022-07-29T03:42:55;3.60;;;2.37;;
20399;SDS011;10359;53.596;22.520;2022-07-29T03:45:24;3.83;;;2.10;;
20399;SDS011;10359;53.596;22.520;2022-07-29T03:47:57;6.23;;;2.20;;
20399;SDS011;10359;53.596;22.520;2022-07-29T03:50:30;2.97;;;2.10;;
20399;SDS011;10359;53.596;22.520;2022-07-29T03:53:01;3.27;;;1.90;;
20399;SDS011;10359;53.596;22.520;2022-07-29T03:55:32;2.30;;;2.10;;
20399;SDS011;10359;53.596;22.520;2022-07-29T03:58:05;4.97;;;2.30;;
20399;SDS011;10359;53.596;22.520;2022-07-29T04:00:36;2.30;;;2.10;;
20399;SDS011;10359;53.596;22.520;2022-07-29T04:03:07;2.23;;;2.03;;
20399;SDS011;10359;53.596;22.520;2022-07-29T04:05:41;2.00;;;1.80;;
20399;SDS011;10359;53.596;22.520;2022-07-29T04:08:10;2.10;;;1.87;;
20399;SDS011;10359;53.596;22.520;2022-07-29T04:10:40;4.60;;;2.00;;
20399;SDS011;10359;53.596;22.520;2022-07-29T04:13:10;4.87;;;1.90;;
20399;SDS011;10359;53.596;22.520;2022-07-29T04:15:40;2.17;;;1.70;;
20399;SDS011;10359;53.596;22.520;2022-07-29T04:18:12;4.30;;;2.03;;
20399;SDS011;10359;53.596;22.520;2022-07-29T04:20:41;2.30;;;1.90;;
20399;SDS011;10359;53.596;22.520;2022-07-29T04:23:10;2.70;;;2.13;;
20399;SDS011;10359;53.596;22.520;2022-07-29T04:25:40;2.03;;;1.83;;
20399;SDS011;10359;53.596;22.520;2022-07-29T04:28:09;4.53;;;2.20;;
20399;SDS011;10359;53.596;22.520;2022-07-29T04:30:38;3.57;;;1.67;;
20399;SDS011;10359;53.596;22.520;2022-07-29T04:33:08;2.10;;;1.70;;
20399;SDS011;10359;53.596;22.520;2022-07-29T04:35:40;3.83;;;1.90;;
20399;SDS011;10359;53.596;22.520;2022-07-29T04:38:18;2.83;;;1.97;;
20399;SDS011;10359;53.596;22.520;2022-07-29T04:40:47;3.20;;;1.83;;
20399;SDS011;10359;53.596;22.520;2022-07-29T04:43:16;4.50;;;2.20;;
20399;SDS011;10359;53.596;22.520;2022-07-29T04:45:48;2.50;;;1.80;;
20399;SDS011;10359;53.596;22.520;2022-07-29T04:48:19;2.50;;;1.90;;
20399;SDS011;10359;53.596;22.520;2022-07-29T04:50:55;1.60;;;1.47;;
20399;SDS011;10359;53.596;22.520;2022-07-29T04:53:25;3.23;;;1.70;;
20399;SDS011;10359;53.596;22.520;2022-07-29T04:55:55;1.83;;;1.70;;
20399;SDS011;10359;53.596;22.520;2022-07-29T04:58:24;2.17;;;1.50;;
20399;SDS011;10359;53.596;22.520;2022-07-29T05:00:53;3.40;;;1.57;;
20399;SDS011;10359;53.596;22.520;2022-07-29T05:03:23;6.70;;;2.63;;
20399;SDS011;10359;53.596;22.520;2022-07-29T05:05:52;2.23;;;1.60;;
20399;SDS011;10359;53.596;22.520;2022-07-29T05:08:23;3.03;;;1.50;;
20399;SDS011;10359;53.596;22.520;2022-07-29T05:10:52;2.57;;;1.50;;
20399;SDS011;10359;53.596;22.520;2022-07-29T05:13:23;1.90;;;1.40;;
20399;SDS011;10359;53.596;22.520;2022-07-29T05:16:10;1.60;;;1.40;;
20399;SDS011;10359;53.596;22.520;2022-07-29T05:18:40;2.13;;;1.37;;
20399;SDS011;10359;53.596;22.520;2022-07-29T05:21:10;2.70;;;1.30;;
20399;SDS011;10359;53.596;22.520;2022-07-29T05:23:40;1.53;;;1.20;;
20399;SDS011;10359;53.596;22.520;2022-07-29T05:26:09;2.10;;;1.20;;
20399;SDS011;10359;53.596;22.520;2022-07-29T05:28:41;1.57;;;1.30;;
20399;SDS011;10359;53.596;22.520;2022-07-29T05:31:11;4.77;;;1.23;;
20399;SDS011;10359;53.596;22.520;2022-07-29T05:33:41;1.77;;;1.00;;
20399;SDS011;10359;53.596;22.520;2022-07-29T05:36:11;4.67;;;1.53;;
20399;SDS011;10359;53.596;22.520;2022-07-29T05:38:41;1.47;;;1.27;;
20399;SDS011;10359;53.596;22.520;2022-07-29T05:41:10;1.00;;;1.00;;
20399;SDS011;10359;53.596;22.520;2022-07-29T05:43:40;2.17;;;1.10;;
20399;SDS011;10359;53.596;22.520;2022-07-29T05:46:10;1.10;;;1.00;;
20399;SDS011;10359;53.596;22.520;2022-07-29T05:48:40;4.27;;;1.23;;
20399;SDS011;10359;53.596;22.520;2022-07-29T05:51:10;1.20;;;1.00;;
20399;SDS011;10359;53.596;22.520;2022-07-29T05:53:39;1.10;;;1.00;;
20399;SDS011;10359;53.596;22.520;2022-07-29T05:56:10;1.93;;;1.10;;
20399;SDS011;10359;53.596;22.520;2022-07-29T05:58:39;1.20;;;1.10;;
20399;SDS011;10359;53.596;22.520;2022-07-29T06:01:08;1.00;;;1.00;;
20399;SDS011;10359;53.596;22.520;2022-07-29T06:03:38;0.90;;;0.90;;
20399;SDS011;10359;53.596;22.520;2022-07-29T06:06:08;2.57;;;1.00;;
20399;SDS011;10359;53.596;22.520;2022-07-29T06:08:40;1.43;;;0.90;;
20399;SDS011;10359;53.596;22.520;2022-07-29T06:11:11;2.07;;;1.10;;
20399;SDS011;10359;53.596;22.520;2022-07-29T06:13:41;2.10;;;0.90;;
20399;SDS011;10359;53.596;22.520;2022-07-29T06:16:12;1.53;;;1.00;;
20399;SDS011;10359;53.596;22.520;2022-07-29T06:18:55;0.93;;;0.83;;
20399;SDS011;10359;53.596;22.520;2022-07-29T06:21:26;1.00;;;0.90;;
20399;SDS011;10359;53.596;22.520;2022-07-29T06:23:55;2.73;;;0.77;;
20399;SDS011;10359;53.596;22.520;2022-07-29T06:26:30;1.90;;;0.90;;
20399;SDS011;10359;53.596;22.520;2022-07-29T06:29:05;1.60;;;1.00;;
20399;SDS011;10359;53.596;22.520;2022-07-29T06:31:34;0.97;;;0.90;;
20399;SDS011;10359;53.596;22.520;2022-07-29T06:34:05;1.70;;;0.90;;
20399;SDS011;10359;53.596;22.520;2022-07-29T06:36:36;0.70;;;0.70;;
20399;SDS011;10359;53.596;22.520;2022-07-29T06:39:06;0.80;;;0.80;;
20399;SDS011;10359;53.596;22.520;2022-07-29T06:41:39;2.60;;;0.97;;
20399;SDS011;10359;53.596;22.520;2022-07-29T06:44:12;2.73;;;0.90;;
20399;SDS011;10359;53.596;22.520;2022-07-29T06:46:42;1.47;;;0.80;;
20399;SDS011;10359;53.596;22.520;2022-07-29T06:49:16;1.03;;;0.90;;
20399;SDS011;10359;53.596;22.520;2022-07-29T06:51:45;0.73;;;0.73;;
20399;SDS011;10359;53.596;22.520;2022-07-29T06:54:16;1.37;;;0.80;;
20399;SDS011;10359;53.596;22.520;2022-07-29T06:56:47;1.00;;;0.80;;
20399;SDS011;10359;53.596;22.520;2022-07-29T06:59:17;1.97;;;0.80;;
20399;SDS011;10359;53.596;22.520;2022-07-29T07:01:58;0.70;;;0.70;;
20399;SDS011;10359;53.596;22.520;2022-07-29T07:04:36;0.93;;;0.80;;
20399;SDS011;10359;53.596;22.520;2022-07-29T07:07:08;0.80;;;0.80;;
20399;SDS011;10359;53.596;22.520;2022-07-29T07:09:39;1.60;;;0.90;;
20399;SDS011;10359;53.596;22.520;2022-07-29T07:12:11;0.80;;;0.70;;
20399;SDS011;10359;53.596;22.520;2022-07-29T07:14:40;1.00;;;0.80;;
20399;SDS011;10359;53.596;22.520;2022-07-29T07:17:10;2.00;;;0.87;;
20399;SDS011;10359;53.596;22.520;2022-07-29T07:19:39;0.73;;;0.70;;
20399;SDS011;10359;53.596;22.520;2022-07-29T07:22:11;2.23;;;1.20;;
20399;SDS011;10359;53.596;22.520;2022-07-29T07:24:40;2.07;;;1.20;;
20399;SDS011;10359;53.596;22.520;2022-07-29T07:27:12;1.33;;;0.70;;
20399;SDS011;10359;53.596;22.520;2022-07-29T07:29:56;0.87;;;0.80;;
20399;SDS011;10359;53.596;22.520;2022-07-29T07:35:40;1.20;;;0.70;;
20399;SDS011;10359;53.596;22.520;2022-07-29T07:38:11;0.80;;;0.80;;
20399;SDS011;10359;53.596;22.520;2022-07-29T07:40:40;0.70;;;0.70;;
20399;SDS011;10359;53.596;22.520;2022-07-29T07:43:16;1.50;;;0.73;;
20399;SDS011;10359;53.596;22.520;2022-07-29T07:45:45;1.50;;;0.87;;
20399;SDS011;10359;53.596;22.520;2022-07-29T07:48:18;1.00;;;0.90;;
20399;SDS011;10359;53.596;22.520;2022-07-29T07:50:47;2.73;;;0.77;;
20399;SDS011;10359;53.596;22.520;2022-07-29T07:53:19;0.93;;;0.70;;
20399;SDS011;10359;53.596;22.520;2022-07-29T07:55:50;0.60;;;0.60;;
20399;SDS011;10359;53.596;22.520;2022-07-29T07:58:37;1.10;;;0.77;;
20399;SDS011;10359;53.596;22.520;2022-07-29T08:01:06;1.17;;;0.80;;
20399;SDS011;10359;53.596;22.520;2022-07-29T08:03:39;0.60;;;0.60;;
20399;SDS011;10359;53.596;22.520;2022-07-29T08:06:09;1.40;;;0.90;;
20399;SDS011;10359;53.596;22.520;2022-07-29T08:08:38;1.10;;;0.90;;
20399;SDS011;10359;53.596;22.520;2022-07-29T08:11:07;1.53;;;0.70;;
20399;SDS011;10359;53.596;22.520;2022-07-29T08:13:37;1.23;;;0.73;;
20399;SDS011;10359;53.596;22.520;2022-07-29T08:16:10;1.40;;;1.00;;
20399;SDS011;10359;53.596;22.520;2022-07-29T08:18:43;0.70;;;0.60;;
20399;SDS011;10359;53.596;22.520;2022-07-29T08:21:14;0.93;;;0.83;;
20399;SDS011;10359;53.596;22.520;2022-07-29T08:23:44;0.80;;;0.53;;
20399;SDS011;10359;53.596;22.520;2022-07-29T08:26:26;0.60;;;0.60;;
20399;SDS011;10359;53.596;22.520;2022-07-29T08:28:58;1.07;;;0.80;;
20399;SDS011;10359;53.596;22.520;2022-07-29T08:31:27;1.00;;;0.90;;
20399;SDS011;10359;53.596;22.520;2022-07-29T08:33:57;2.87;;;1.00;;
20399;SDS011;10359;53.596;22.520;2022-07-29T08:36:29;1.10;;;0.70;;
20399;SDS011;10359;53.596;22.520;2022-07-29T08:38:59;0.70;;;0.70;;
20399;SDS011;10359;53.596;22.520;2022-07-29T08:41:30;1.37;;;0.80;;
20399;SDS011;10359;53.596;22.520;2022-07-29T08:44:03;0.70;;;0.70;;
20399;SDS011;10359;53.596;22.520;2022-07-29T08:46:35;0.60;;;0.60;;
20399;SDS011;10359;53.596;22.520;2022-07-29T08:49:06;0.87;;;0.73;;
20399;SDS011;10359;53.596;22.520;2022-07-29T08:51:36;1.70;;;0.80;;
20399;SDS011;10359;53.596;22.520;2022-07-29T08:54:16;1.00;;;0.90;;
20399;SDS011;10359;53.596;22.520;2022-07-29T08:56:58;0.93;;;0.63;;
20399;SDS011;10359;53.596;22.520;2022-07-29T08:59:30;0.83;;;0.80;;
20399;SDS011;10359;53.596;22.520;2022-07-29T09:02:06;0.77;;;0.70;;
20399;SDS011;10359;53.596;22.520;2022-07-29T09:04:46;1.37;;;0.80;;
20399;SDS011;10359;53.596;22.520;2022-07-29T09:07:16;1.10;;;0.70;;
20399;SDS011;10359;53.596;22.520;2022-07-29T09:09:47;1.47;;;0.70;;
20399;SDS011;10359;53.596;22.520;2022-07-29T09:12:21;0.70;;;0.70;;
20399;SDS011;10359;53.596;22.520;2022-07-29T09:14:56;0.60;;;0.53;;
20399;SDS011;10359;53.596;22.520;2022-07-29T09:17:40;0.80;;;0.80;;
20399;SDS011;10359;53.596;22.520;2022-07-29T09:20:12;0.93;;;0.60;;
20399;SDS011;10359;53.596;22.520;2022-07-29T09:22:44;1.00;;;0.67;;
20399;SDS011;10359;53.596;22.520;2022-07-29T09:25:31;0.80;;;0.80;;
20399;SDS011;10359;53.596;22.520;2022-07-29T09:28:06;1.47;;;0.83;;
20399;SDS011;10359;53.596;22.520;2022-07-29T09:30:37;1.00;;;0.77;;
20399;SDS011;10359;53.596;22.520;2022-07-29T09:33:22;0.60;;;0.60;;
20399;SDS011;10359;53.596;22.520;2022-07-29T09:36:03;1.60;;;0.70;;
20399;SDS011;10359;53.596;22.520;2022-07-29T09:38:35;0.60;;;0.60;;
20399;SDS011;10359;53.596;22.520;2022-07-29T09:41:05;0.80;;;0.80;;
20399;SDS011;10359;53.596;22.520;2022-07-29T09:43:37;0.70;;;0.70;;
20399;SDS011;10359;53.596;22.520;2022-07-29T09:46:11;0.90;;;0.83;;
20399;SDS011;10359;53.596;22.520;2022-07-29T09:48:43;1.03;;;0.80;;
20399;SDS011;10359;53.596;22.520;2022-07-29T09:51:35;0.80;;;0.67;;
20399;SDS011;10359;53.596;22.520;2022-07-29T09:54:21;0.83;;;0.83;;
20399;SDS011;10359;53.596;22.520;2022-07-29T09:57:05;0.77;;;0.73;;
20399;SDS011;10359;53.596;22.520;2022-07-29T09:59:39;1.30;;;0.67;;
20399;SDS011;10359;53.596;22.520;2022-07-29T10:02:28;0.90;;;0.70;;
20399;SDS011;10359;53.596;22.520;2022-07-29T10:05:00;1.77;;;0.80;;
20399;SDS011;10359;53.596;22.520;2022-07-29T10:07:44;2.03;;;0.90;;
20399;SDS011;10359;53.596;22.520;2022-07-29T10:10:23;2.10;;;0.70;;
20399;SDS011;10359;53.596;22.520;2022-07-29T10:12:55;2.40;;;0.60;;
20399;SDS011;10359;53.596;22.520;2022-07-29T10:15:36;0.77;;;0.70;;
20399;SDS011;10359;53.596;22.520;2022-07-29T10:18:10;1.10;;;0.63;;
20399;SDS011;10359;53.596;22.520;2022-07-29T10:20:45;0.80;;;0.80;;
20399;SDS011;10359;53.596;22.520;2022-07-29T10:23:16;0.80;;;0.60;;
20399;SDS011;10359;53.596;22.520;2022-07-29T10:25:46;1.83;;;1.00;;
20399;SDS011;10359;53.596;22.520;2022-07-29T10:28:17;1.20;;;0.80;;
20399;SDS011;10359;53.596;22.520;2022-07-29T10:30:49;0.97;;;0.80;;
20399;SDS011;10359;53.596;22.520;2022-07-29T10:33:29;0.60;;;0.60;;
20399;SDS011;10359;53.596;22.520;2022-07-29T10:36:19;1.47;;;0.67;;
20399;SDS011;10359;53.596;22.520;2022-07-29T10:38:59;0.63;;;0.63;;
20399;SDS011;10359;53.596;22.520;2022-07-29T10:41:52;0.83;;;0.77;;
20399;SDS011;10359;53.596;22.520;2022-07-29T10:44:36;0.70;;;0.70;;
20399;SDS011;10359;53.596;22.520;2022-07-29T10:47:19;1.27;;;0.80;;
20399;SDS011;10359;53.596;22.520;2022-07-29T10:49:56;2.50;;;0.87;;
20399;SDS011;10359;53.596;22.520;2022-07-29T10:55:34;0.97;;;0.67;;
20399;SDS011;10359;53.596;22.520;2022-07-29T10:58:13;1.07;;;0.80;;
20399;SDS011;10359;53.596;22.520;2022-07-29T11:00:45;0.80;;;0.80;;
20399;SDS011;10359;53.596;22.520;2022-07-29T11:06:20;1.27;;;0.70;;
20399;SDS011;10359;53.596;22.520;2022-07-29T11:09:15;0.77;;;0.60;;
20399;SDS011;10359;53.596;22.520;2022-07-29T11:12:04;0.80;;;0.60;;
20399;SDS011;10359;53.596;22.520;2022-07-29T11:14:55;1.37;;;0.60;;
20399;SDS011;10359;53.596;22.520;2022-07-29T11:17:25;1.20;;;0.80;;
20399;SDS011;10359;53.596;22.520;2022-07-29T11:20:31;1.13;;;0.70;;
20399;SDS011;10359;53.596;22.520;2022-07-29T11:26:18;0.60;;;0.60;;
20399;SDS011;10359;53.596;22.520;2022-07-29T11:28:52;1.90;;;0.90;;
20399;SDS011;10359;53.596;22.520;2022-07-29T11:31:33;0.93;;;0.80;;
20399;SDS011;10359;53.596;22.520;2022-07-29T11:34:17;0.70;;;0.70;;
20399;SDS011;10359;53.596;22.520;2022-07-29T11:37:17;0.53;;;0.53;;
20399;SDS011;10359;53.596;22.520;2022-07-29T11:42:47;0.53;;;0.53;;
20399;SDS011;10359;53.596;22.520;2022-07-29T11:45:19;1.40;;;0.80;;
20399;SDS011;10359;53.596;22.520;2022-07-29T11:48:15;1.27;;;0.80;;
20399;SDS011;10359;53.596;22.520;2022-07-29T11:51:08;0.90;;;0.90;;
20399;SDS011;10359;53.596;22.520;2022-07-29T11:53:42;1.40;;;0.80;;
20399;SDS011;10359;53.596;22.520;2022-07-29T11:56:19;1.63;;;0.70;;
20399;SDS011;10359;53.596;22.520;2022-07-29T11:59:00;1.07;;;0.80;;
20399;SDS011;10359;53.596;22.520;2022-07-29T12:01:34;1.40;;;1.10;;
20399;SDS011;10359;53.596;22.520;2022-07-29T12:04:04;1.67;;;0.80;;
20399;SDS011;10359;53.596;22.520;2022-07-29T12:06:34;4.33;;;0.87;;
20399;SDS011;10359;53.596;22.520;2022-07-29T12:09:07;1.30;;;0.87;;
20399;SDS011;10359;53.596;22.520;2022-07-29T12:11:42;0.70;;;0.67;;
20399;SDS011;10359;53.596;22.520;2022-07-29T12:14:30;0.70;;;0.70;;
20399;SDS011;10359;53.596;22.520;2022-07-29T12:17:01;1.10;;;0.90;;
20399;SDS011;10359;53.596;22.520;2022-07-29T12:19:34;2.47;;;0.80;;
20399;SDS011;10359;53.596;22.520;2022-07-29T12:22:12;1.20;;;0.70;;
20399;SDS011;10359;53.596;22.520;2022-07-29T12:24:53;1.60;;;0.70;;
20399;SDS011;10359;53.596;22.520;2022-07-29T12:27:45;0.70;;;0.70;;
20399;SDS011;10359;53.596;22.520;2022-07-29T12:30:15;1.00;;;0.70;;
20399;SDS011;10359;53.596;22.520;2022-07-29T12:32:48;0.80;;;0.80;;
20399;SDS011;10359;53.596;22.520;2022-07-29T12:35:18;2.00;;;0.70;;
20399;SDS011;10359;53.596;22.520;2022-07-29T12:37:48;1.77;;;0.60;;
20399;SDS011;10359;53.596;22.520;2022-07-29T12:40:21;1.57;;;0.90;;
20399;SDS011;10359;53.596;22.520;2022-07-29T12:43:08;1.37;;;0.93;;
20399;SDS011;10359;53.596;22.520;2022-07-29T12:45:41;1.30;;;1.00;;
20399;SDS011;10359;53.596;22.520;2022-07-29T12:48:11;2.20;;;1.13;;
20399;SDS011;10359;53.596;22.520;2022-07-29T12:50:54;1.00;;;0.83;;
20399;SDS011;10359;53.596;22.520;2022-07-29T12:53:25;3.00;;;0.80;;
20399;SDS011;10359;53.596;22.520;2022-07-29T12:55:56;1.57;;;1.20;;
20399;SDS011;10359;53.596;22.520;2022-07-29T12:58:44;1.80;;;1.10;;
20399;SDS011;10359;53.596;22.520;2022-07-29T13:01:17;1.47;;;0.60;;
20399;SDS011;10359;53.596;22.520;2022-07-29T13:03:49;2.40;;;0.90;;
20399;SDS011;10359;53.596;22.520;2022-07-29T13:06:30;0.77;;;0.77;;
20399;SDS011;10359;53.596;22.520;2022-07-29T13:09:03;0.75;;;0.75;;
20399;SDS011;10359;53.596;22.520;2022-07-29T13:11:35;0.87;;;0.70;;
20399;SDS011;10359;53.596;22.520;2022-07-29T13:14:29;0.80;;;0.73;;
20399;SDS011;10359;53.596;22.520;2022-07-29T13:17:03;1.10;;;0.80;;
20399;SDS011;10359;53.596;22.520;2022-07-29T13:19:36;0.88;;;0.80;;
20399;SDS011;10359;53.596;22.520;2022-07-29T13:22:07;1.15;;;0.60;;
20399;SDS011;10359;53.596;22.520;2022-07-29T13:24:45;0.98;;;0.73;;
20399;SDS011;10359;53.596;22.520;2022-07-29T13:27:17;0.82;;;0.80;;
20399;SDS011;10359;53.596;22.520;2022-07-29T13:29:53;1.55;;;0.82;;
20399;SDS011;10359;53.596;22.520;2022-07-29T13:32:24;0.60;;;0.60;;
20399;SDS011;10359;53.596;22.520;2022-07-29T13:34:57;1.02;;;0.90;;
20399;SDS011;10359;53.596;22.520;2022-07-29T13:37:31;0.73;;;0.73;;
20399;SDS011;10359;53.596;22.520;2022-07-29T13:40:02;0.68;;;0.68;;
20399;SDS011;10359;53.596;22.520;2022-07-29T13:42:33;1.92;;;1.08;;
20399;SDS011;10359;53.596;22.520;2022-07-29T13:45:04;0.90;;;0.80;;
20399;SDS011;10359;53.596;22.520;2022-07-29T13:47:35;1.20;;;0.90;;
20399;SDS011;10359;53.596;22.520;2022-07-29T13:50:05;0.77;;;0.73;;
20399;SDS011;10359;53.596;22.520;2022-07-29T13:52:37;1.15;;;0.88;;
20399;SDS011;10359;53.596;22.520;2022-07-29T13:55:08;0.73;;;0.73;;
20399;SDS011;10359;53.596;22.520;2022-07-29T13:57:39;1.35;;;0.80;;
20399;SDS011;10359;53.596;22.520;2022-07-29T14:00:12;1.23;;;0.95;;
20399;SDS011;10359;53.596;22.520;2022-07-29T14:02:43;1.08;;;0.90;;
20399;SDS011;10359;53.596;22.520;2022-07-29T14:05:12;0.93;;;0.80;;
20399;SDS011;10359;53.596;22.520;2022-07-29T14:07:41;0.80;;;0.80;;
20399;SDS011;10359;53.596;22.520;2022-07-29T14:10:10;1.50;;;0.98;;
20399;SDS011;10359;53.596;22.520;2022-07-29T14:12:45;1.05;;;0.82;;
20399;SDS011;10359;53.596;22.520;2022-07-29T14:15:16;1.95;;;0.73;;
20399;SDS011;10359;53.596;22.520;2022-07-29T14:17:46;0.52;;;0.50;;
20399;SDS011;10359;53.596;22.520;2022-07-29T14:20:16;1.13;;;0.68;;
20399;SDS011;10359;53.596;22.520;2022-07-29T14:22:45;1.58;;;0.93;;
20399;SDS011;10359;53.596;22.520;2022-07-29T14:25:16;1.90;;;1.00;;
20399;SDS011;10359;53.596;22.520;2022-07-29T14:27:47;1.60;;;0.70;;
20399;SDS011;10359;53.596;22.520;2022-07-29T14:30:18;1.15;;;0.77;;
20399;SDS011;10359;53.596;22.520;2022-07-29T14:32:47;1.67;;;0.90;;
20399;SDS011;10359;53.596;22.520;2022-07-29T14:35:20;1.40;;;0.90;;
20399;SDS011;10359;53.596;22.520;2022-07-29T14:37:50;0.80;;;0.80;;
20399;SDS011;10359;53.596;22.520;2022-07-29T14:40:20;1.85;;;0.90;;
20399;SDS011;10359;53.596;22.520;2022-07-29T14:42:49;1.17;;;0.90;;
20399;SDS011;10359;53.596;22.520;2022-07-29T14:45:20;1.00;;;0.80;;
20399;SDS011;10359;53.596;22.520;2022-07-29T14:47:49;1.95;;;0.80;;
20399;SDS011;10359;53.596;22.520;2022-07-29T14:50:23;1.42;;;1.00;;
20399;SDS011;10359;53.596;22.520;2022-07-29T14:52:57;1.10;;;1.00;;
20399;SDS011;10359;53.596;22.520;2022-07-29T14:55:29;1.42;;;0.82;;
20399;SDS011;10359;53.596;22.520;2022-07-29T14:58:00;0.80;;;0.80;;
20399;SDS011;10359;53.596;22.520;2022-07-29T15:00:39;0.77;;;0.70;;
20399;SDS011;10359;53.596;22.520;2022-07-29T15:03:08;0.65;;;0.65;;
20399;SDS011;10359;53.596;22.520;2022-07-29T15:05:37;2.13;;;0.80;;
20399;SDS011;10359;53.596;22.520;2022-07-29T15:08:06;3.72;;;0.88;;
20399;SDS011;10359;53.596;22.520;2022-07-29T15:10:36;0.80;;;0.80;;
20399;SDS011;10359;53.596;22.520;2022-07-29T15:13:05;3.03;;;0.80;;
20399;SDS011;10359;53.596;22.520;2022-07-29T15:15:35;1.60;;;1.20;;
20399;SDS011;10359;53.596;22.520;2022-07-29T15:18:05;3.72;;;1.25;;
20399;SDS011;10359;53.596;22.520;2022-07-29T15:20:37;0.85;;;0.80;;
20399;SDS011;10359;53.596;22.520;2022-07-29T15:23:07;2.08;;;0.90;;
20399;SDS011;10359;53.596;22.520;2022-07-29T15:25:39;2.50;;;0.98;;
20399;SDS011;10359;53.596;22.520;2022-07-29T15:28:08;2.45;;;1.00;;
20399;SDS011;10359;53.596;22.520;2022-07-29T15:30:38;1.73;;;0.95;;
20399;SDS011;10359;53.596;22.520;2022-07-29T15:33:10;1.92;;;1.20;;